createdAt,value
2018-06-10T00:01:18.947Z,99.90
2018-06-10T00:03:47.757Z,99.90
2018-06-10T00:06:16.125Z,99.90
2018-06-10T00:08:44.546Z,99.90
2018-06-10T00:11:13.375Z,99.90
2018-06-10T00:13:41.719Z,99.90
2018-06-10T00:16:10.067Z,99.90
2018-06-10T00:18:39.675Z,99.90
2018-06-10T00:21:08.418Z,99.90
2018-06-10T00:23:36.826Z,99.90
2018-06-10T00:26:05.709Z,99.90
2018-06-10T00:28:39.836Z,99.90
2018-06-10T00:31:09.132Z,99.90
2018-06-10T00:33:38.050Z,99.90
2018-06-10T00:36:06.415Z,99.90
2018-06-10T00:38:35.648Z,99.90
2018-06-10T00:41:04.402Z,99.90
2018-06-10T00:43:32.883Z,99.90
2018-06-10T00:46:01.555Z,99.90
2018-06-10T00:48:30.290Z,99.90
2018-06-10T00:50:58.677Z,99.90
2018-06-10T00:53:27.037Z,99.90
2018-06-10T00:55:55.902Z,99.90
2018-06-10T00:58:24.697Z,99.90
2018-06-10T01:00:53.072Z,99.90
2018-06-10T01:03:21.811Z,99.90
2018-06-10T01:05:50.308Z,99.90
2018-06-10T01:08:18.702Z,99.90
2018-06-10T01:10:47.513Z,99.90
2018-06-10T01:13:15.959Z,99.90
2018-06-10T01:15:44.419Z,99.90
2018-06-10T01:18:13.147Z,99.90
2018-06-10T01:20:42.879Z,99.90
2018-06-10T01:25:39.617Z,99.90
2018-06-10T01:28:08.120Z,99.90
2018-06-10T01:33:05.168Z,99.90
2018-06-10T01:35:33.718Z,99.90
2018-06-10T01:38:02.329Z,99.90
2018-06-10T01:40:31.130Z,99.90
2018-06-10T01:45:27.497Z,99.90
2018-06-10T01:47:56.546Z,99.90
2018-06-10T01:50:25.028Z,99.90
2018-06-10T01:52:53.509Z,99.90
2018-06-10T01:55:22.412Z,99.90
2018-06-10T01:57:50.790Z,99.90
2018-06-10T02:00:19.237Z,99.90
2018-06-10T02:02:48.070Z,99.90
2018-06-10T02:05:16.517Z,99.90
2018-06-10T02:07:44.960Z,99.90
2018-06-10T02:10:19.347Z,99.90
2018-06-10T02:19:26.781Z,99.90
2018-06-10T02:21:55.576Z,99.90
2018-06-10T02:27:00.896Z,99.90
2018-06-10T02:33:05.956Z,99.90
2018-06-10T02:35:43.538Z,99.90
2018-06-10T02:38:12.081Z,99.90
2018-06-10T02:43:13.712Z,99.90
2018-06-10T02:45:42.365Z,99.90
2018-06-10T02:48:10.731Z,99.90
2018-06-10T02:50:39.484Z,99.90
2018-06-10T02:53:08.261Z,99.90
2018-06-10T02:55:41.478Z,99.90
2018-06-10T02:58:17.335Z,99.90
2018-06-10T03:01:11.368Z,99.90
2018-06-10T03:03:48.440Z,99.90
2018-06-10T03:06:25.319Z,99.90
2018-06-10T03:08:58.035Z,99.90
2018-06-10T03:11:43.405Z,99.90
2018-06-10T03:14:35.675Z,99.90
2018-06-10T03:17:21.561Z,99.90
2018-06-10T03:19:54.068Z,99.90
2018-06-10T03:22:24.423Z,99.90
2018-06-10T03:24:53.296Z,99.90
2018-06-10T03:27:21.783Z,99.90
2018-06-10T03:29:50.773Z,99.90
2018-06-10T03:32:21.360Z,99.90
2018-06-10T03:34:51.972Z,99.90
2018-06-10T03:37:20.355Z,99.90
2018-06-10T03:39:59.035Z,99.90
2018-06-10T03:42:29.968Z,99.90
2018-06-10T03:44:59.170Z,99.90
2018-06-10T03:47:28.484Z,99.90
2018-06-10T03:50:07.097Z,99.90
2018-06-10T03:52:36.185Z,99.90
2018-06-10T03:55:04.524Z,99.90
2018-06-10T03:57:32.925Z,99.90
2018-06-10T04:00:01.722Z,99.90
2018-06-10T04:02:30.081Z,99.90
2018-06-10T04:05:08.544Z,99.90
2018-06-10T04:07:38.188Z,99.90
2018-06-10T04:10:06.675Z,99.90
2018-06-10T04:12:35.073Z,99.90
2018-06-10T04:15:03.852Z,99.90
2018-06-10T04:17:32.345Z,99.90
2018-06-10T04:20:00.950Z,99.90
2018-06-10T04:22:29.925Z,99.90
2018-06-10T04:24:58.439Z,99.90
2018-06-10T04:27:29.288Z,99.90
2018-06-10T04:30:01.287Z,99.90
2018-06-10T04:32:35.337Z,99.90
2018-06-10T04:35:13.193Z,99.90
2018-06-10T04:37:44.397Z,99.90
2018-06-10T04:40:13.054Z,99.90
2018-06-10T04:42:41.449Z,99.90
2018-06-10T04:45:09.847Z,99.90
2018-06-10T04:47:42.675Z,99.90
2018-06-10T04:50:26.137Z,99.90
2018-06-10T04:53:13.216Z,99.90
2018-06-10T04:58:38.334Z,99.90
2018-06-10T05:01:06.690Z,99.90
2018-06-10T05:03:35.031Z,99.90
2018-06-10T05:06:03.801Z,99.90
2018-06-10T05:08:32.177Z,99.90
2018-06-10T05:11:00.535Z,99.90
2018-06-10T05:13:29.244Z,99.90
2018-06-10T05:15:57.758Z,99.90
2018-06-10T05:18:26.128Z,99.90
2018-06-10T05:20:54.879Z,99.90
2018-06-10T05:23:23.291Z,99.90
2018-06-10T05:25:51.635Z,99.90
2018-06-10T05:28:20.419Z,99.90
2018-06-10T05:30:48.880Z,99.90
2018-06-10T05:35:45.609Z,99.90
2018-06-10T05:38:13.954Z,99.90
2018-06-10T05:40:42.369Z,99.90
2018-06-10T05:43:11.233Z,99.90
2018-06-10T05:45:39.707Z,99.90
2018-06-10T05:48:08.114Z,99.90
2018-06-10T05:50:38.461Z,99.90
2018-06-10T05:53:12.827Z,99.90
2018-06-10T05:55:41.353Z,99.90
2018-06-10T05:58:10.110Z,99.90
2018-06-10T06:00:39.567Z,99.90
2018-06-10T06:03:07.920Z,99.90
2018-06-10T06:05:36.776Z,99.90
2018-06-10T06:08:05.253Z,99.90
2018-06-10T06:10:33.651Z,99.90
2018-06-10T06:13:02.462Z,99.90
2018-06-10T06:15:30.781Z,99.90
2018-06-10T06:17:59.144Z,99.90
2018-06-10T06:20:27.928Z,99.90
2018-06-10T06:22:56.385Z,99.90
2018-06-10T06:25:24.828Z,99.90
2018-06-10T06:27:54.684Z,99.90
2018-06-10T06:30:27.478Z,99.90
2018-06-10T06:32:55.889Z,99.90
2018-06-10T06:35:24.679Z,99.90
2018-06-10T06:37:53.191Z,99.90
2018-06-10T06:40:21.512Z,99.90
2018-06-10T06:42:50.328Z,99.90
2018-06-10T06:45:18.803Z,99.90
2018-06-10T06:47:47.384Z,99.10
2018-06-10T06:50:16.735Z,99.90
2018-06-10T06:52:45.929Z,99.90
2018-06-10T06:55:16.788Z,99.90
2018-06-10T06:57:45.752Z,99.70
2018-06-10T07:00:16.558Z,99.30
2018-06-10T07:02:45.171Z,99.00
2018-06-10T07:05:18.486Z,99.50
2018-06-10T07:07:48.566Z,99.90
2018-06-10T07:10:16.978Z,99.90
2018-06-10T07:12:46.174Z,99.90
2018-06-10T07:15:15.040Z,97.90
2018-06-10T07:17:43.779Z,95.20
2018-06-10T07:20:12.641Z,97.60
2018-06-10T07:22:41.068Z,98.20
2018-06-10T07:25:09.642Z,99.90
2018-06-10T07:27:38.394Z,99.90
2018-06-10T07:30:06.749Z,99.90
2018-06-10T07:32:37.111Z,99.90
2018-06-10T07:35:06.898Z,99.90
2018-06-10T07:37:35.245Z,99.90
2018-06-10T07:40:03.580Z,99.90
2018-06-10T07:42:33.450Z,99.90
2018-06-10T07:45:01.971Z,99.90
2018-06-10T07:47:30.404Z,99.90
2018-06-10T07:49:59.188Z,99.90
2018-06-10T07:52:27.829Z,99.90
2018-06-10T07:55:11.199Z,99.90
2018-06-10T07:57:50.853Z,99.90
2018-06-10T08:00:19.225Z,99.90
2018-06-10T08:02:47.634Z,99.90
2018-06-10T08:05:16.416Z,99.90
2018-06-10T08:07:44.972Z,99.90
2018-06-10T08:10:13.361Z,99.90
2018-06-10T08:12:42.204Z,99.90
2018-06-10T08:17:38.803Z,99.90
2018-06-10T08:20:12.775Z,99.90
2018-06-10T08:27:21.201Z,99.90
2018-06-10T08:29:49.656Z,99.90
2018-06-10T08:32:42.341Z,99.90
2018-06-10T08:37:41.340Z,99.90
2018-06-10T08:40:10.454Z,99.90
2018-06-10T08:42:59.058Z,99.90
2018-06-10T08:48:02.274Z,99.90
2018-06-10T08:50:41.218Z,99.90
2018-06-10T08:56:54.370Z,99.90
2018-06-10T08:59:50.714Z,99.90
2018-06-10T09:02:20.472Z,99.90
2018-06-10T09:04:49.397Z,99.90
2018-06-10T09:07:18.019Z,99.90
2018-06-10T09:09:46.673Z,99.90
2018-06-10T09:12:16.258Z,99.90
2018-06-10T09:14:45.949Z,99.90
2018-06-10T09:17:14.487Z,99.90
2018-06-10T09:19:45.370Z,99.90
2018-06-10T09:22:17.350Z,99.90
2018-06-10T09:24:50.730Z,99.90
2018-06-10T09:27:19.798Z,99.90
2018-06-10T09:29:54.279Z,99.90
2018-06-10T09:32:25.103Z,99.90
2018-06-10T09:34:55.404Z,99.90
2018-06-10T09:37:30.422Z,99.90
2018-06-10T09:40:03.082Z,99.90
2018-06-10T09:42:37.009Z,99.90
2018-06-10T09:45:09.873Z,99.90
2018-06-10T09:52:42.785Z,99.90
2018-06-10T09:55:14.291Z,99.90
2018-06-10T09:57:45.695Z,99.90
2018-06-10T10:00:19.833Z,99.90
2018-06-10T10:02:48.984Z,99.90
2018-06-10T10:05:18.725Z,99.90
2018-06-10T10:07:47.529Z,99.90
2018-06-10T10:10:16.476Z,99.90
2018-06-10T10:12:49.227Z,99.90
2018-06-10T10:15:58.164Z,99.90
2018-06-10T10:18:26.770Z,99.90
2018-06-10T10:20:55.286Z,99.90
2018-06-10T10:23:24.123Z,99.90
2018-06-10T10:25:52.788Z,99.90
2018-06-10T10:28:21.940Z,99.90
2018-06-10T10:30:51.715Z,99.90
2018-06-10T10:33:20.165Z,99.90
2018-06-10T10:35:52.440Z,99.90
2018-06-10T10:38:21.483Z,99.90
2018-06-10T10:40:52.056Z,99.90
2018-06-10T10:43:20.583Z,99.90
2018-06-10T10:45:49.336Z,99.90
2018-06-10T10:48:18.253Z,99.90
2018-06-10T10:50:48.675Z,99.90
2018-06-10T10:53:36.817Z,99.90
2018-06-10T10:56:28.853Z,99.90
2018-06-10T10:58:57.811Z,99.90
2018-06-10T11:01:26.299Z,99.90
2018-06-10T11:03:54.668Z,99.90
2018-06-10T11:06:25.518Z,99.90
2018-06-10T11:08:59.051Z,99.90
2018-06-10T11:14:57.836Z,99.90
2018-06-10T11:17:26.256Z,99.90
2018-06-10T11:19:56.698Z,99.90
2018-06-10T11:22:25.532Z,99.90
2018-06-10T11:24:54.045Z,99.90
2018-06-10T11:34:08.706Z,99.90
2018-06-10T11:36:38.248Z,99.90
2018-06-10T11:41:34.939Z,99.90
2018-06-10T11:44:03.807Z,99.90
2018-06-10T11:46:32.224Z,99.90
2018-06-10T11:49:00.713Z,99.90
2018-06-10T11:51:29.615Z,99.90
2018-06-10T11:54:06.071Z,99.90
2018-06-10T11:59:07.897Z,99.90
2018-06-10T12:01:41.241Z,99.90
2018-06-10T12:04:11.714Z,99.90
2018-06-10T12:06:40.292Z,99.90
2018-06-10T12:09:08.698Z,99.90
2018-06-10T12:11:37.573Z,99.90
2018-06-10T12:14:06.084Z,99.90
2018-06-10T12:16:34.468Z,99.90
2018-06-10T12:19:03.295Z,99.90
2018-06-10T12:21:32.370Z,99.90
2018-06-10T12:24:01.542Z,99.90
2018-06-10T12:26:30.267Z,99.90
2018-06-10T12:28:58.675Z,99.90
2018-06-10T12:31:27.629Z,99.90
2018-06-10T12:33:56.364Z,99.90
2018-06-10T12:38:52.732Z,99.90
2018-06-10T12:41:21.128Z,99.90
2018-06-10T12:43:49.476Z,99.90
2018-06-10T12:48:53.962Z,99.90
2018-06-10T12:51:27.380Z,99.90
2018-06-10T12:53:56.016Z,99.90
2018-06-10T12:56:32.416Z,99.90
2018-06-10T12:59:00.763Z,99.90
2018-06-10T13:01:29.467Z,99.90
2018-06-10T13:03:57.767Z,99.90
2018-06-10T13:06:26.625Z,99.90
2018-06-10T13:08:57.155Z,99.90
2018-06-10T13:11:26.541Z,99.90
2018-06-10T13:13:58.340Z,99.90
2018-06-10T13:16:27.204Z,99.90
2018-06-10T13:18:55.593Z,99.90
2018-06-10T13:21:23.947Z,99.90
2018-06-10T13:23:53.668Z,99.90
2018-06-10T13:28:56.553Z,99.90
2018-06-10T13:31:25.475Z,99.90
2018-06-10T13:33:58.002Z,99.90
2018-06-10T13:36:37.041Z,99.90
2018-06-10T13:39:07.405Z,99.90
2018-06-10T13:41:35.891Z,99.90
2018-06-10T13:44:04.411Z,99.90
2018-06-10T13:46:33.256Z,99.90
2018-06-10T13:49:01.912Z,99.90
2018-06-10T13:51:30.251Z,99.90
2018-06-10T13:53:58.926Z,99.90
2018-06-10T13:56:28.960Z,99.90
2018-06-10T13:58:57.384Z,99.90
2018-06-10T14:01:26.281Z,99.90
2018-06-10T14:03:55.002Z,99.90
2018-06-10T14:06:23.359Z,99.90
2018-06-10T14:08:52.801Z,99.90
2018-06-10T14:11:21.408Z,99.90
2018-06-10T14:13:49.755Z,99.90
2018-06-10T14:16:18.849Z,99.90
2018-06-10T14:18:48.375Z,99.90
2018-06-10T14:27:49.215Z,99.90
2018-06-10T14:30:17.861Z,99.90
2018-06-10T14:32:46.671Z,99.90
2018-06-10T14:35:17.335Z,99.90
2018-06-10T14:37:57.620Z,99.90
2018-06-10T14:40:26.286Z,99.90
2018-06-10T14:42:54.646Z,99.90
2018-06-10T14:45:24.693Z,99.90
2018-06-10T14:47:53.699Z,99.90
2018-06-10T14:50:22.109Z,99.90
2018-06-10T14:52:51.613Z,99.90
2018-06-10T14:55:20.465Z,99.90
2018-06-10T14:57:49.990Z,99.90
2018-06-10T15:00:20.137Z,99.90
2018-06-10T15:03:06.816Z,99.90
2018-06-10T15:08:03.517Z,99.90
2018-06-10T15:10:50.642Z,99.90
2018-06-10T15:13:20.790Z,99.90
2018-06-10T15:15:49.155Z,99.90
2018-06-10T15:18:17.521Z,99.90
2018-06-10T15:24:05.933Z,99.90
2018-06-10T15:26:34.991Z,99.90
2018-06-10T15:29:03.357Z,99.90
2018-06-10T15:32:06.503Z,99.90
2018-06-10T15:34:35.582Z,99.90
2018-06-10T15:39:32.352Z,99.90
2018-06-10T15:44:29.628Z,99.90
2018-06-10T15:46:58.124Z,99.90
2018-06-10T15:49:26.856Z,99.90
2018-06-10T15:51:55.945Z,99.90
2018-06-10T15:54:25.292Z,99.90
2018-06-10T15:56:54.187Z,99.90
2018-06-10T16:01:51.439Z,99.90
2018-06-10T16:04:20.151Z,99.90
2018-06-10T16:06:49.209Z,99.90
2018-06-10T16:09:17.714Z,99.90
2018-06-10T16:11:49.716Z,99.90
2018-06-10T16:14:18.367Z,99.90
2018-06-10T16:16:46.767Z,99.90
2018-06-10T16:19:15.565Z,99.90
2018-06-10T16:21:43.954Z,99.90
2018-06-10T16:24:16.216Z,99.90
2018-06-10T16:29:13.813Z,99.90
2018-06-10T16:31:42.705Z,99.90
2018-06-10T16:34:21.428Z,99.90
2018-06-10T16:36:49.796Z,99.90
2018-06-10T16:39:18.209Z,99.90
2018-06-10T16:44:14.944Z,99.90
2018-06-10T16:46:43.383Z,99.90
2018-06-10T16:49:15.388Z,99.90
2018-06-10T16:52:01.000Z,99.90
2018-06-10T16:57:12.623Z,99.90
2018-06-10T16:59:41.843Z,99.90
2018-06-10T17:02:13.080Z,99.90
2018-06-10T17:04:41.427Z,99.90
2018-06-10T17:07:10.133Z,99.90
2018-06-10T17:09:38.547Z,99.90
2018-06-10T17:12:07.949Z,99.90
2018-06-10T17:14:36.654Z,99.90
2018-06-10T17:17:07.689Z,99.90
2018-06-10T17:19:36.171Z,99.90
2018-06-10T17:22:11.793Z,99.90
2018-06-10T17:24:45.364Z,99.90
2018-06-10T17:27:14.230Z,99.90
2018-06-10T17:29:42.792Z,99.90
2018-06-10T17:34:39.552Z,99.90
2018-06-10T17:37:07.909Z,99.90
2018-06-10T17:39:36.501Z,99.90
2018-06-10T17:43:00.612Z,99.90
2018-06-10T17:45:29.294Z,99.90
2018-06-10T17:47:58.986Z,99.90
2018-06-10T17:50:27.444Z,99.90
2018-06-10T17:52:55.844Z,99.90
2018-06-10T17:55:43.835Z,99.90
2018-06-10T17:58:27.328Z,99.90
2018-06-10T18:00:59.817Z,99.90
2018-06-10T18:03:32.074Z,99.90
2018-06-10T18:06:02.226Z,99.90
2018-06-10T18:08:31.145Z,99.90
2018-06-10T18:10:59.538Z,99.90
2018-06-10T18:13:28.837Z,99.90
2018-06-10T18:15:57.637Z,99.90
2018-06-10T18:20:54.239Z,99.90
2018-06-10T18:25:50.908Z,99.90
2018-06-10T18:28:19.416Z,99.90
2018-06-10T18:30:48.310Z,99.90
2018-06-10T18:33:16.917Z,99.90
2018-06-10T18:35:46.469Z,99.90
2018-06-10T18:38:15.574Z,99.90
2018-06-10T18:41:00.264Z,99.90
2018-06-10T18:45:57.670Z,99.90
2018-06-10T18:48:26.750Z,99.90
2018-06-10T18:50:56.541Z,99.90
2018-06-10T18:53:24.941Z,99.90
2018-06-10T18:55:53.327Z,99.90
2018-06-10T18:58:21.982Z,99.90
2018-06-10T19:00:50.399Z,99.90
2018-06-10T19:03:22.186Z,99.90
2018-06-10T19:05:52.790Z,99.90
2018-06-10T19:08:21.209Z,99.90
2018-06-10T19:10:50.128Z,99.90
2018-06-10T19:13:19.127Z,99.90
2018-06-10T19:15:47.770Z,99.90
2018-06-10T19:18:18.247Z,99.90
2018-06-10T19:20:58.871Z,99.90
2018-06-10T19:23:29.021Z,99.90
2018-06-10T19:25:57.815Z,99.90
2018-06-10T19:28:27.168Z,99.90
2018-06-10T19:33:26.257Z,99.90
2018-06-10T19:35:54.680Z,99.90
2018-06-10T19:38:29.908Z,99.90
2018-06-10T19:41:00.388Z,99.90
2018-06-10T19:43:30.613Z,99.90
2018-06-10T19:45:59.232Z,99.90
2018-06-10T19:48:28.070Z,99.90
2018-06-10T19:50:56.446Z,99.90
2018-06-10T19:53:24.788Z,99.90
2018-06-10T19:59:34.247Z,99.90
2018-06-10T20:02:04.925Z,99.90
2018-06-10T20:04:42.302Z,99.90
2018-06-10T20:07:14.253Z,99.90
2018-06-10T20:12:20.233Z,99.90
2018-06-10T20:14:48.950Z,99.90
2018-06-10T20:17:22.810Z,99.90
2018-06-10T20:19:56.231Z,99.90
2018-06-10T20:22:25.927Z,99.90
2018-06-10T20:24:55.447Z,99.90
2018-06-10T20:30:34.592Z,99.90
2018-06-10T20:33:10.308Z,99.90
2018-06-10T20:35:39.753Z,99.90
2018-06-10T20:38:14.902Z,99.90
2018-06-10T20:43:35.651Z,99.90
2018-06-10T20:49:47.066Z,99.90
2018-06-10T20:52:16.935Z,99.90
2018-06-10T20:54:47.125Z,99.90
2018-06-10T20:59:52.121Z,99.90
2018-06-10T21:10:23.136Z,99.90
2018-06-10T21:13:00.245Z,99.90
2018-06-10T21:15:31.911Z,99.90
2018-06-10T21:18:00.233Z,99.90
2018-06-10T21:20:33.341Z,99.90
2018-06-10T21:23:03.351Z,99.90
2018-06-10T21:25:36.964Z,99.90
2018-06-10T21:28:05.407Z,99.90
2018-06-10T21:30:35.524Z,99.90
2018-06-10T21:33:08.834Z,99.90
2018-06-10T21:35:37.516Z,99.90
2018-06-10T21:38:08.800Z,99.90
2018-06-10T21:40:37.753Z,99.90
2018-06-10T21:43:06.508Z,99.90
2018-06-10T21:45:40.963Z,99.90
2018-06-10T21:48:15.531Z,99.90
2018-06-10T21:50:50.934Z,99.90
2018-06-10T22:00:30.725Z,99.90
2018-06-10T22:02:59.464Z,99.90
2018-06-10T22:05:28.114Z,99.90
2018-06-10T22:07:56.493Z,99.90
2018-06-10T22:13:00.836Z,99.90
2018-06-10T22:15:29.760Z,99.90
2018-06-10T22:17:58.142Z,99.90
2018-06-10T22:20:26.497Z,99.90
2018-06-10T22:22:55.164Z,99.90
2018-06-10T22:25:23.579Z,99.90
2018-06-10T22:27:51.952Z,99.90
2018-06-10T22:30:20.708Z,99.90
2018-06-10T22:32:49.024Z,99.90
2018-06-10T22:35:17.371Z,99.90
2018-06-10T22:37:45.748Z,99.90
2018-06-10T22:40:14.066Z,99.90
2018-06-10T22:42:42.447Z,99.90
2018-06-10T22:45:10.855Z,99.90
2018-06-10T22:50:07.233Z,99.90
2018-06-10T22:52:36.423Z,99.90
2018-06-10T22:55:04.757Z,99.90
2018-06-10T22:57:33.136Z,99.90
2018-06-10T23:00:01.932Z,99.90
2018-06-10T23:02:30.276Z,99.90
2018-06-10T23:04:58.660Z,99.90
2018-06-10T23:07:27.021Z,99.90
2018-06-10T23:09:55.398Z,99.90
2018-06-10T23:12:23.951Z,99.90
2018-06-10T23:14:52.301Z,99.90
2018-06-10T23:17:20.990Z,99.90
2018-06-10T23:19:49.314Z,99.90
2018-06-10T23:22:17.662Z,99.90
2018-06-10T23:24:46.738Z,99.90
2018-06-10T23:27:15.157Z,99.90
2018-06-10T23:29:43.733Z,99.90
2018-06-10T23:32:12.116Z,99.90
2018-06-10T23:34:40.526Z,99.90
2018-06-10T23:37:08.870Z,99.90
2018-06-10T23:39:37.261Z,99.90
2018-06-10T23:42:06.096Z,99.90
2018-06-10T23:44:36.113Z,99.90
2018-06-10T23:47:04.698Z,99.90
2018-06-10T23:49:33.060Z,99.90
2018-06-10T23:52:01.468Z,99.90
2018-06-10T23:54:29.917Z,99.90
2018-06-10T23:56:58.601Z,99.90
2018-06-10T23:59:27.265Z,99.90
